Terminal Aerodrome Forecast
Issued by NWS Sioux Falls, SD

Home | Current Version | Previous Version | Text Only | Print | Product List | Glossary On
Versions: 1 2 3 4 5 6 7 8 9 10 11 12 13 14 15 16 17 18 19 20
000
FTUS43 KFSD 262340
TAFHON
TAF
KHON 262340Z 2700/2724 36014KT P6SM SCT012 OVC025
      TEMPO 2701/2704 5SM -SN OVC012
     FM270600 34012KT P6SM SCT012 OVC025
     FM271300 29007KT P6SM SCT015 BKN060
     FM271900 24007KT P6SM BKN025=

USA.gov is the U.S. government's official web portal to all federal, state and local government web resources and services.